sensor_id;sensor_type;location;lat;lon;timestamp;pressure;altitude;pressure_sealevel;temperature;humidity
12781;BME280;6454;43.304;24.344;2022-09-01T00:01:27;100015.66;;;19.89;94.67
12781;BME280;6454;43.304;24.344;2022-09-01T00:03:56;100021.59;;;19.91;95.00
12781;BME280;6454;43.304;24.344;2022-09-01T00:06:28;100001.66;;;19.82;95.31
12781;BME280;6454;43.304;24.344;2022-09-01T00:08:58;100014.47;;;19.90;94.77
12781;BME280;6454;43.304;24.344;2022-09-01T00:11:27;100019.66;;;19.91;93.60
12781;BME280;6454;43.304;24.344;2022-09-01T00:13:55;100016.41;;;19.89;93.34
12781;BME280;6454;43.304;24.344;2022-09-01T00:16:22;100015.09;;;19.83;93.58
12781;BME280;6454;43.304;24.344;2022-09-01T00:18:52;99993.31;;;19.78;93.05
12781;BME280;6454;43.304;24.344;2022-09-01T00:21:22;100013.91;;;19.84;93.63
12781;BME280;6454;43.304;24.344;2022-09-01T00:23:50;100007.28;;;19.85;93.77
12781;BME280;6454;43.304;24.344;2022-09-01T00:26:17;100013.22;;;19.87;93.88
12781;BME280;6454;43.304;24.344;2022-09-01T00:28:44;100009.22;;;19.85;93.33
12781;BME280;6454;43.304;24.344;2022-09-01T00:31:11;100006.72;;;19.80;92.91
12781;BME280;6454;43.304;24.344;2022-09-01T00:33:39;100007.88;;;19.79;93.07
12781;BME280;6454;43.304;24.344;2022-09-01T00:36:08;99992.22;;;19.67;92.75
12781;BME280;6454;43.304;24.344;2022-09-01T00:38:36;99982.69;;;19.65;93.18
12781;BME280;6454;43.304;24.344;2022-09-01T00:41:04;99995.16;;;19.74;93.06
12781;BME280;6454;43.304;24.344;2022-09-01T00:43:37;99996.66;;;19.72;93.20
12781;BME280;6454;43.304;24.344;2022-09-01T00:46:07;99985.94;;;19.67;93.54
12781;BME280;6454;43.304;24.344;2022-09-01T00:48:35;99989.56;;;19.71;94.15
12781;BME280;6454;43.304;24.344;2022-09-01T00:51:03;99991.44;;;19.67;94.55
12781;BME280;6454;43.304;24.344;2022-09-01T00:53:32;99996.66;;;19.72;95.35
12781;BME280;6454;43.304;24.344;2022-09-01T00:56:00;99995.16;;;19.74;95.78
12781;BME280;6454;43.304;24.344;2022-09-01T00:58:27;100002.63;;;19.74;96.71
12781;BME280;6454;43.304;24.344;2022-09-01T01:00:55;99999.88;;;19.74;97.68
12781;BME280;6454;43.304;24.344;2022-09-01T01:03:22;100012.47;;;19.75;98.50
12781;BME280;6454;43.304;24.344;2022-09-01T01:05:53;100014.78;;;19.73;99.44
12781;BME280;6454;43.304;24.344;2022-09-01T01:08:24;100021.66;;;19.79;99.96
12781;BME280;6454;43.304;24.344;2022-09-01T01:10:59;100025.19;;;19.79;99.49
12781;BME280;6454;43.304;24.344;2022-09-01T01:13:27;100016.16;;;19.79;98.92
12781;BME280;6454;43.304;24.344;2022-09-01T01:15:56;100022.91;;;19.81;98.58
12781;BME280;6454;43.304;24.344;2022-09-01T01:18:24;100030.59;;;19.76;97.66
12781;BME280;6454;43.304;24.344;2022-09-01T01:20:58;100039.31;;;19.78;97.96
12781;BME280;6454;43.304;24.344;2022-09-01T01:23:51;100028.03;;;19.83;99.23
12781;BME280;6454;43.304;24.344;2022-09-01T01:26:23;100034.00;;;19.85;98.71
12781;BME280;6454;43.304;24.344;2022-09-01T01:28:50;100031.03;;;19.78;98.77
12781;BME280;6454;43.304;24.344;2022-09-01T01:31:18;100037.09;;;19.83;98.87
12781;BME280;6454;43.304;24.344;2022-09-01T01:33:49;100023.72;;;19.70;98.22
12781;BME280;6454;43.304;24.344;2022-09-01T01:36:19;100040.19;;;19.82;98.18
12781;BME280;6454;43.304;24.344;2022-09-01T01:38:55;100035.41;;;19.79;98.33
12781;BME280;6454;43.304;24.344;2022-09-01T01:41:30;100036.66;;;19.81;97.50
12781;BME280;6454;43.304;24.344;2022-09-01T01:43:58;100035.41;;;19.79;96.87
12781;BME280;6454;43.304;24.344;2022-09-01T01:46:25;100047.38;;;19.71;96.71
12781;BME280;6454;43.304;24.344;2022-09-01T01:48:52;100046.91;;;19.69;96.61
12781;BME280;6454;43.304;24.344;2022-09-01T01:51:20;100043.72;;;19.67;96.59
12781;BME280;6454;43.304;24.344;2022-09-01T01:53:49;100021.03;;;19.58;97.29
12781;BME280;6454;43.304;24.344;2022-09-01T01:56:17;100034.66;;;19.66;97.62
12781;BME280;6454;43.304;24.344;2022-09-01T01:58:45;100044.16;;;19.69;97.58
12781;BME280;6454;43.304;24.344;2022-09-01T02:01:13;100051.75;;;19.60;97.70
12781;BME280;6454;43.304;24.344;2022-09-01T02:03:41;100044.22;;;19.57;97.91
12781;BME280;6454;43.304;24.344;2022-09-01T02:06:09;100044.22;;;19.57;97.41
12781;BME280;6454;43.304;24.344;2022-09-01T02:08:37;100040.28;;;19.58;96.57
12781;BME280;6454;43.304;24.344;2022-09-01T02:11:06;100039.41;;;19.54;95.70
12781;BME280;6454;43.304;24.344;2022-09-01T02:13:33;100046.47;;;19.55;95.31
12781;BME280;6454;43.304;24.344;2022-09-01T02:16:05;100040.91;;;19.51;94.59
12781;BME280;6454;43.304;24.344;2022-09-01T02:18:39;100021.31;;;19.28;94.44
12781;BME280;6454;43.304;24.344;2022-09-01T02:21:08;100035.63;;;19.46;94.61
12781;BME280;6454;43.304;24.344;2022-09-01T02:23:36;100038.38;;;19.46;94.51
12781;BME280;6454;43.304;24.344;2022-09-01T02:26:04;100021.19;;;19.37;94.69
12781;BME280;6454;43.304;24.344;2022-09-01T02:28:34;100031.19;;;19.42;94.63
12781;BME280;6454;43.304;24.344;2022-09-01T02:31:05;100037.81;;;19.41;93.84
12781;BME280;6454;43.304;24.344;2022-09-01T02:33:34;100038.38;;;19.34;93.71
12781;BME280;6454;43.304;24.344;2022-09-01T02:36:05;100043.19;;;19.25;93.88
12781;BME280;6454;43.304;24.344;2022-09-01T02:38:33;100042.19;;;19.17;95.19
12781;BME280;6454;43.304;24.344;2022-09-01T02:41:01;100050.44;;;19.17;96.75
12781;BME280;6454;43.304;24.344;2022-09-01T02:43:28;100047.47;;;19.10;97.71
12781;BME280;6454;43.304;24.344;2022-09-01T02:45:58;100039.56;;;19.09;98.00
12781;BME280;6454;43.304;24.344;2022-09-01T02:48:32;100034.06;;;19.09;97.93
12781;BME280;6454;43.304;24.344;2022-09-01T02:51:01;100035.78;;;19.13;97.45
12781;BME280;6454;43.304;24.344;2022-09-01T02:53:29;100032.22;;;19.13;97.51
12781;BME280;6454;43.304;24.344;2022-09-01T02:55:59;100034.66;;;19.14;97.20
12781;BME280;6454;43.304;24.344;2022-09-01T02:58:27;100035.66;;;19.10;96.99
12781;BME280;6454;43.304;24.344;2022-09-01T03:00:55;100030.63;;;19.12;96.83
12781;BME280;6454;43.304;24.344;2022-09-01T03:03:23;100038.41;;;19.10;96.30
12781;BME280;6454;43.304;24.344;2022-09-01T03:05:52;100038.09;;;19.11;95.98
12781;BME280;6454;43.304;24.344;2022-09-01T03:08:22;100038.53;;;19.13;95.62
12781;BME280;6454;43.304;24.344;2022-09-01T03:10:50;100038.88;;;19.12;95.23
12781;BME280;6454;43.304;24.344;2022-09-01T03:13:20;100039.44;;;19.05;94.55
12781;BME280;6454;43.304;24.344;2022-09-01T03:15:48;100035.81;;;19.01;94.40
12781;BME280;6454;43.304;24.344;2022-09-01T03:18:16;100039.22;;;18.98;94.66
12781;BME280;6454;43.304;24.344;2022-09-01T03:20:44;100040.03;;;18.99;94.43
12781;BME280;6454;43.304;24.344;2022-09-01T03:23:15;100037.28;;;18.99;93.90
12781;BME280;6454;43.304;24.344;2022-09-01T03:25:44;100035.91;;;18.93;94.32
12781;BME280;6454;43.304;24.344;2022-09-01T03:28:13;100039.69;;;18.88;94.48
12781;BME280;6454;43.304;24.344;2022-09-01T03:30:44;100041.09;;;18.94;94.74
12781;BME280;6454;43.304;24.344;2022-09-01T03:33:12;100047.34;;;18.95;94.12
12781;BME280;6454;43.304;24.344;2022-09-01T03:35:39;100029.63;;;18.80;93.78
12781;BME280;6454;43.304;24.344;2022-09-01T03:38:06;100054.13;;;18.85;94.45
12781;BME280;6454;43.304;24.344;2022-09-01T03:40:35;100047.81;;;18.85;94.73
12781;BME280;6454;43.304;24.344;2022-09-01T03:43:04;100042.81;;;18.87;95.27
12781;BME280;6454;43.304;24.344;2022-09-01T03:45:31;100053.88;;;18.90;95.52
12781;BME280;6454;43.304;24.344;2022-09-01T03:47:59;100045.06;;;18.85;94.88
12781;BME280;6454;43.304;24.344;2022-09-01T03:50:28;100051.38;;;18.85;94.89
12781;BME280;6454;43.304;24.344;2022-09-01T03:52:57;100050.25;;;18.86;94.92
12781;BME280;6454;43.304;24.344;2022-09-01T03:55:28;100056.88;;;18.85;94.47
12781;BME280;6454;43.304;24.344;2022-09-01T03:58:01;100049.66;;;18.81;94.31
12781;BME280;6454;43.304;24.344;2022-09-01T04:00:33;100058.34;;;18.83;94.81
12781;BME280;6454;43.304;24.344;2022-09-01T04:03:02;100065.34;;;18.80;94.91
12781;BME280;6454;43.304;24.344;2022-09-01T04:05:33;100067.41;;;18.83;95.11
12781;BME280;6454;43.304;24.344;2022-09-01T04:08:05;100071.19;;;18.79;95.07
12781;BME280;6454;43.304;24.344;2022-09-01T04:10:34;100065.09;;;18.73;95.36
12781;BME280;6454;43.304;24.344;2022-09-01T04:13:04;100054.56;;;18.75;95.54
12781;BME280;6454;43.304;24.344;2022-09-01T04:15:36;100061.22;;;18.74;95.85
12781;BME280;6454;43.304;24.344;2022-09-01T04:18:04;100054.25;;;18.77;95.50
12781;BME280;6454;43.304;24.344;2022-09-01T04:20:34;100060.66;;;18.81;94.73
12781;BME280;6454;43.304;24.344;2022-09-01T04:23:16;100066.00;;;18.77;95.08
12781;BME280;6454;43.304;24.344;2022-09-01T04:25:47;100065.78;;;18.82;95.13
12781;BME280;6454;43.304;24.344;2022-09-01T04:28:17;100066.97;;;18.81;95.57
12781;BME280;6454;43.304;24.344;2022-09-01T04:30:51;100066.59;;;18.83;95.71
12781;BME280;6454;43.304;24.344;2022-09-01T04:33:21;100067.41;;;18.83;95.99
12781;BME280;6454;43.304;24.344;2022-09-01T04:35:49;100067.84;;;18.85;96.39
12781;BME280;6454;43.304;24.344;2022-09-01T04:38:22;100062.38;;;18.85;96.45
12781;BME280;6454;43.304;24.344;2022-09-01T04:40:50;100067.19;;;18.88;96.76
12781;BME280;6454;43.304;24.344;2022-09-01T04:43:19;100060.31;;;18.94;97.26
12781;BME280;6454;43.304;24.344;2022-09-01T04:45:46;100067.16;;;19.00;97.53
12781;BME280;6454;43.304;24.344;2022-09-01T04:48:17;100065.44;;;19.08;97.96
12781;BME280;6454;43.304;24.344;2022-09-01T04:50:45;100060.53;;;19.13;98.30
12781;BME280;6454;43.304;24.344;2022-09-01T04:53:14;100065.00;;;19.18;98.58
12781;BME280;6454;43.304;24.344;2022-09-01T04:55:43;100056.50;;;19.23;99.03
12781;BME280;6454;43.304;24.344;2022-09-01T04:58:12;100068.06;;;19.28;99.71
12781;BME280;6454;43.304;24.344;2022-09-01T05:00:44;100065.09;;;19.34;100.00
12781;BME280;6454;43.304;24.344;2022-09-01T05:03:13;100057.41;;;19.27;98.47
12781;BME280;6454;43.304;24.344;2022-09-01T05:05:46;100073.13;;;19.39;97.86
12781;BME280;6454;43.304;24.344;2022-09-01T05:08:15;100060.28;;;19.30;97.34
12781;BME280;6454;43.304;24.344;2022-09-01T05:10:44;100061.53;;;19.45;97.50
12781;BME280;6454;43.304;24.344;2022-09-01T05:13:13;100064.84;;;19.51;98.00
12781;BME280;6454;43.304;24.344;2022-09-01T05:15:44;100064.50;;;19.52;98.38
12781;BME280;6454;43.304;24.344;2022-09-01T05:18:13;100058.41;;;19.59;98.45
12781;BME280;6454;43.304;24.344;2022-09-01T05:20:41;100058.63;;;19.66;98.03
12781;BME280;6454;43.304;24.344;2022-09-01T05:23:10;100056.44;;;19.71;97.47
12781;BME280;6454;43.304;24.344;2022-09-01T05:25:42;100052.63;;;19.76;97.49
12781;BME280;6454;43.304;24.344;2022-09-01T05:28:10;100053.72;;;19.87;97.36
12781;BME280;6454;43.304;24.344;2022-09-01T05:30:39;100057.19;;;19.84;98.34
12781;BME280;6454;43.304;24.344;2022-09-01T05:33:09;100053.13;;;19.93;98.44
12781;BME280;6454;43.304;24.344;2022-09-01T05:35:38;100063.09;;;19.98;98.53
12781;BME280;6454;43.304;24.344;2022-09-01T05:38:10;100059.78;;;19.92;99.91
12781;BME280;6454;43.304;24.344;2022-09-01T05:40:40;100060.22;;;19.94;100.00
12781;BME280;6454;43.304;24.344;2022-09-01T05:43:08;100064.09;;;20.06;100.00
12781;BME280;6454;43.304;24.344;2022-09-01T05:45:38;100051.44;;;20.05;100.00
12781;BME280;6454;43.304;24.344;2022-09-01T05:48:10;100059.53;;;20.25;98.70
12781;BME280;6454;43.304;24.344;2022-09-01T05:50:42;100058.28;;;20.23;99.42
12781;BME280;6454;43.304;24.344;2022-09-01T05:53:10;100057.06;;;20.36;99.79
12781;BME280;6454;43.304;24.344;2022-09-01T05:55:42;100053.31;;;20.28;98.55
12781;BME280;6454;43.304;24.344;2022-09-01T05:58:11;100049.41;;;20.29;97.90
12781;BME280;6454;43.304;24.344;2022-09-01T06:00:40;100058.22;;;20.50;98.46
12781;BME280;6454;43.304;24.344;2022-09-01T06:03:09;100057.44;;;20.66;97.21
12781;BME280;6454;43.304;24.344;2022-09-01T06:05:36;100057.59;;;20.73;96.07
12781;BME280;6454;43.304;24.344;2022-09-01T06:08:04;100064.19;;;20.84;96.41
12781;BME280;6454;43.304;24.344;2022-09-01T06:10:32;100059.03;;;20.98;95.76
12781;BME280;6454;43.304;24.344;2022-09-01T06:13:01;100065.63;;;21.09;94.86
12781;BME280;6454;43.304;24.344;2022-09-01T06:15:28;100057.16;;;21.17;94.43
12781;BME280;6454;43.304;24.344;2022-09-01T06:17:55;100057.41;;;21.28;93.83
12781;BME280;6454;43.304;24.344;2022-09-01T06:20:24;100063.50;;;21.37;91.68
12781;BME280;6454;43.304;24.344;2022-09-01T06:22:52;100056.19;;;21.45;91.27
12781;BME280;6454;43.304;24.344;2022-09-01T06:25:19;100062.06;;;21.43;91.02
12781;BME280;6454;43.304;24.344;2022-09-01T06:27:46;100049.00;;;21.40;90.64
12781;BME280;6454;43.304;24.344;2022-09-01T06:30:14;100066.19;;;21.68;89.92
12781;BME280;6454;43.304;24.344;2022-09-01T06:32:45;100065.88;;;21.73;89.30
12781;BME280;6454;43.304;24.344;2022-09-01T06:35:14;100054.03;;;21.73;89.19
12781;BME280;6454;43.304;24.344;2022-09-01T06:37:44;100063.31;;;21.84;89.36
12781;BME280;6454;43.304;24.344;2022-09-01T06:40:15;100058.06;;;21.95;89.58
12781;BME280;6454;43.304;24.344;2022-09-01T06:42:44;100059.06;;;22.06;89.45
12781;BME280;6454;43.304;24.344;2022-09-01T06:45:12;100050.13;;;22.12;88.24
12781;BME280;6454;43.304;24.344;2022-09-01T06:47:39;100051.25;;;22.30;87.64
12781;BME280;6454;43.304;24.344;2022-09-01T06:50:09;100047.81;;;22.37;86.24
12781;BME280;6454;43.304;24.344;2022-09-01T06:52:39;100042.47;;;22.48;85.70
12781;BME280;6454;43.304;24.344;2022-09-01T06:55:09;100046.09;;;22.52;84.32
12781;BME280;6454;43.304;24.344;2022-09-01T06:57:36;100047.91;;;22.63;84.19
12781;BME280;6454;43.304;24.344;2022-09-01T07:00:05;100043.00;;;22.76;83.42
12781;BME280;6454;43.304;24.344;2022-09-01T07:02:43;100043.41;;;22.78;82.89
12781;BME280;6454;43.304;24.344;2022-09-01T07:05:10;100048.00;;;22.93;80.23
12781;BME280;6454;43.304;24.344;2022-09-01T07:07:46;100035.03;;;22.97;82.09
12781;BME280;6454;43.304;24.344;2022-09-01T07:10:17;100035.63;;;23.09;82.02
12781;BME280;6454;43.304;24.344;2022-09-01T07:12:47;100030.16;;;23.17;80.73
12781;BME280;6454;43.304;24.344;2022-09-01T07:15:14;100035.47;;;23.29;81.96
12781;BME280;6454;43.304;24.344;2022-09-01T07:17:42;100030.53;;;23.38;82.10
12781;BME280;6454;43.304;24.344;2022-09-01T07:20:09;100030.94;;;23.40;81.55
12781;BME280;6454;43.304;24.344;2022-09-01T07:22:37;100022.72;;;23.47;80.49
12781;BME280;6454;43.304;24.344;2022-09-01T07:25:05;100029.16;;;23.54;81.26
12781;BME280;6454;43.304;24.344;2022-09-01T07:27:38;100024.50;;;23.62;79.77
12781;BME280;6454;43.304;24.344;2022-09-01T07:30:06;100034.84;;;23.65;81.51
12781;BME280;6454;43.304;24.344;2022-09-01T07:32:35;100024.59;;;23.69;80.58
12781;BME280;6454;43.304;24.344;2022-09-01T07:35:05;100024.66;;;23.76;79.94
12781;BME280;6454;43.304;24.344;2022-09-01T07:37:33;99999.31;;;23.74;82.05
12781;BME280;6454;43.304;24.344;2022-09-01T07:40:04;100039.19;;;23.99;81.34
12781;BME280;6454;43.304;24.344;2022-09-01T07:42:32;100021.41;;;24.00;79.12
12781;BME280;6454;43.304;24.344;2022-09-01T07:45:00;100026.09;;;23.96;80.38
12781;BME280;6454;43.304;24.344;2022-09-01T07:47:31;100036.69;;;24.20;82.63
12781;BME280;6454;43.304;24.344;2022-09-01T07:50:01;100033.69;;;24.03;80.11
12781;BME280;6454;43.304;24.344;2022-09-01T07:52:30;100039.91;;;23.93;80.57
12781;BME280;6454;43.304;24.344;2022-09-01T07:54:57;100038.38;;;23.95;81.24
12781;BME280;6454;43.304;24.344;2022-09-01T07:57:24;100030.53;;;24.04;80.10
12781;BME280;6454;43.304;24.344;2022-09-01T07:59:51;100021.16;;;24.12;80.38
12781;BME280;6454;43.304;24.344;2022-09-01T08:02:21;100027.94;;;24.18;80.18
12781;BME280;6454;43.304;24.344;2022-09-01T08:04:49;100019.78;;;24.32;79.36
12781;BME280;6454;43.304;24.344;2022-09-01T08:07:15;100015.44;;;24.35;79.33
12781;BME280;6454;43.304;24.344;2022-09-01T08:09:42;100015.16;;;24.47;78.77
12781;BME280;6454;43.304;24.344;2022-09-01T08:12:09;100018.75;;;24.48;80.13
12781;BME280;6454;43.304;24.344;2022-09-01T08:14:36;100011.75;;;24.64;80.07
12781;BME280;6454;43.304;24.344;2022-09-01T08:17:04;100009.38;;;24.63;77.99
12781;BME280;6454;43.304;24.344;2022-09-01T08:19:32;100006.63;;;24.70;78.01
12781;BME280;6454;43.304;24.344;2022-09-01T08:22:00;100009.06;;;24.75;79.37
12781;BME280;6454;43.304;24.344;2022-09-01T08:24:27;100018.53;;;24.70;77.31
12781;BME280;6454;43.304;24.344;2022-09-01T08:26:54;100012.63;;;24.75;77.46
12781;BME280;6454;43.304;24.344;2022-09-01T08:29:21;100006.06;;;24.94;77.66
12781;BME280;6454;43.304;24.344;2022-09-01T08:31:48;100009.66;;;25.02;77.76
12781;BME280;6454;43.304;24.344;2022-09-01T08:34:15;100013.66;;;25.04;76.61
12781;BME280;6454;43.304;24.344;2022-09-01T08:36:43;100010.22;;;25.28;78.60
12781;BME280;6454;43.304;24.344;2022-09-01T08:39:10;100012.66;;;25.40;73.83
12781;BME280;6454;43.304;24.344;2022-09-01T08:41:41;100007.19;;;25.47;73.68
12781;BME280;6454;43.304;24.344;2022-09-01T08:44:17;100009.53;;;25.45;74.22
12781;BME280;6454;43.304;24.344;2022-09-01T08:46:48;100006.03;;;25.55;73.39
12781;BME280;6454;43.304;24.344;2022-09-01T08:49:22;100005.31;;;25.69;73.16
12781;BME280;6454;43.304;24.344;2022-09-01T08:51:55;100006.09;;;25.70;72.96
12781;BME280;6454;43.304;24.344;2022-09-01T08:54:26;99955.13;;;25.34;72.83
12781;BME280;6454;43.304;24.344;2022-09-01T08:56:59;100000.16;;;25.68;73.21
12781;BME280;6454;43.304;24.344;2022-09-01T08:59:27;100005.72;;;25.78;74.04
12781;BME280;6454;43.304;24.344;2022-09-01T09:02:01;99999.38;;;25.78;72.98
12781;BME280;6454;43.304;24.344;2022-09-01T09:04:43;100002.22;;;26.02;72.09
12781;BME280;6454;43.304;24.344;2022-09-01T09:07:22;100001.84;;;26.04;71.22
12781;BME280;6454;43.304;24.344;2022-09-01T09:10:02;100004.97;;;25.95;71.43
12781;BME280;6454;43.304;24.344;2022-09-01T09:12:38;100004.59;;;26.00;71.75
12781;BME280;6454;43.304;24.344;2022-09-01T09:15:21;100005.84;;;26.28;72.11
12781;BME280;6454;43.304;24.344;2022-09-01T09:17:54;100005.88;;;26.31;70.13
12781;BME280;6454;43.304;24.344;2022-09-01T09:20:25;100007.47;;;26.46;69.82
12781;BME280;6454;43.304;24.344;2022-09-01T09:22:54;100005.09;;;26.55;69.74
12781;BME280;6454;43.304;24.344;2022-09-01T09:25:22;100003.53;;;26.72;69.29
12781;BME280;6454;43.304;24.344;2022-09-01T09:27:50;99997.97;;;26.86;68.02
12781;BME280;6454;43.304;24.344;2022-09-01T09:30:20;99978.88;;;26.81;67.72
12781;BME280;6454;43.304;24.344;2022-09-01T09:32:49;99980.06;;;26.83;67.17
12781;BME280;6454;43.304;24.344;2022-09-01T09:35:24;100000.31;;;27.09;65.33
12781;BME280;6454;43.304;24.344;2022-09-01T09:37:55;99991.19;;;26.98;65.19
12781;BME280;6454;43.304;24.344;2022-09-01T09:40:24;99941.50;;;26.61;65.71
12781;BME280;6454;43.304;24.344;2022-09-01T09:43:04;99992.38;;;26.93;65.38
12781;BME280;6454;43.304;24.344;2022-09-01T09:45:33;99988.00;;;26.85;65.59
12781;BME280;6454;43.304;24.344;2022-09-01T09:48:05;99983.25;;;26.78;65.84
12781;BME280;6454;43.304;24.344;2022-09-01T09:50:34;99982.44;;;26.74;65.45
12781;BME280;6454;43.304;24.344;2022-09-01T09:53:24;99974.53;;;26.76;66.61
12781;BME280;6454;43.304;24.344;2022-09-01T09:55:58;99974.50;;;26.94;65.88
12781;BME280;6454;43.304;24.344;2022-09-01T09:58:32;99964.91;;;27.06;65.38
12781;BME280;6454;43.304;24.344;2022-09-01T10:01:05;99956.53;;;27.20;65.22
12781;BME280;6454;43.304;24.344;2022-09-01T10:03:37;99972.81;;;27.39;63.16
12781;BME280;6454;43.304;24.344;2022-09-01T10:06:09;99962.06;;;27.41;63.29
12781;BME280;6454;43.304;24.344;2022-09-01T10:08:39;99946.53;;;27.43;64.24
12781;BME280;6454;43.304;24.344;2022-09-01T10:11:11;99961.59;;;27.57;63.03
12781;BME280;6454;43.304;24.344;2022-09-01T10:13:38;99955.19;;;27.63;62.99
12781;BME280;6454;43.304;24.344;2022-09-01T10:16:08;99956.78;;;27.61;63.16
12781;BME280;6454;43.304;24.344;2022-09-01T10:18:43;99948.47;;;27.50;62.91
12781;BME280;6454;43.304;24.344;2022-09-01T10:21:13;99947.66;;;27.53;62.26
12781;BME280;6454;43.304;24.344;2022-09-01T10:23:42;99945.72;;;27.46;62.74
12781;BME280;6454;43.304;24.344;2022-09-01T10:26:14;99943.69;;;27.51;62.03
12781;BME280;6454;43.304;24.344;2022-09-01T10:28:46;99940.16;;;27.46;62.88
12781;BME280;6454;43.304;24.344;2022-09-01T10:31:18;99944.03;;;27.63;62.71
12781;BME280;6454;43.304;24.344;2022-09-01T10:33:45;99929.28;;;27.66;61.67
12781;BME280;6454;43.304;24.344;2022-09-01T10:36:14;99935.59;;;27.77;61.92
12781;BME280;6454;43.304;24.344;2022-09-01T10:38:43;99940.28;;;27.94;61.39
12781;BME280;6454;43.304;24.344;2022-09-01T10:44:33;99931.28;;;27.69;61.01
12781;BME280;6454;43.304;24.344;2022-09-01T10:47:03;99926.78;;;27.82;60.50
12781;BME280;6454;43.304;24.344;2022-09-01T10:52:51;99923.56;;;27.91;61.49
12781;BME280;6454;43.304;24.344;2022-09-01T10:55:21;99930.28;;;28.04;61.16
12781;BME280;6454;43.304;24.344;2022-09-01T10:57:55;99925.47;;;28.08;60.43
12781;BME280;6454;43.304;24.344;2022-09-01T11:00:47;99910.72;;;28.07;60.02
12781;BME280;6454;43.304;24.344;2022-09-01T11:03:36;99918.56;;;28.27;60.13
12781;BME280;6454;43.304;24.344;2022-09-01T11:06:05;99911.44;;;28.19;59.57
12781;BME280;6454;43.304;24.344;2022-09-01T11:08:44;99897.88;;;28.17;58.84
12781;BME280;6454;43.304;24.344;2022-09-01T11:11:32;99908.16;;;28.31;59.45
12781;BME280;6454;43.304;24.344;2022-09-01T11:14:16;99914.03;;;28.40;59.39
12781;BME280;6454;43.304;24.344;2022-09-01T11:17:12;99906.56;;;28.30;58.82
12781;BME280;6454;43.304;24.344;2022-09-01T11:19:40;99903.31;;;28.35;58.54
12781;BME280;6454;43.304;24.344;2022-09-01T11:22:22;99895.38;;;28.33;58.43
12781;BME280;6454;43.304;24.344;2022-09-01T11:25:05;99914.03;;;28.40;58.23
12781;BME280;6454;43.304;24.344;2022-09-01T11:30:54;99902.06;;;28.43;57.00
12781;BME280;6454;43.304;24.344;2022-09-01T11:33:54;99917.22;;;28.42;55.85
12781;BME280;6454;43.304;24.344;2022-09-01T11:36:30;99916.34;;;28.52;55.85
12781;BME280;6454;43.304;24.344;2022-09-01T11:39:06;99910.66;;;28.62;56.71
12781;BME280;6454;43.304;24.344;2022-09-01T11:41:41;99902.41;;;28.48;56.06
12781;BME280;6454;43.304;24.344;2022-09-01T11:44:13;99906.47;;;28.40;57.07
12781;BME280;6454;43.304;24.344;2022-09-01T11:46:41;99909.34;;;28.30;57.16
12781;BME280;6454;43.304;24.344;2022-09-01T11:49:25;99897.13;;;28.17;58.33
12781;BME280;6454;43.304;24.344;2022-09-01T11:51:53;99891.53;;;28.17;57.16
12781;BME280;6454;43.304;24.344;2022-09-01T11:54:20;99888.16;;;28.39;56.72
12781;BME280;6454;43.304;24.344;2022-09-01T11:56:49;99888.78;;;28.61;55.53
12781;BME280;6454;43.304;24.344;2022-09-01T11:59:29;99881.13;;;28.68;55.78
12781;BME280;6454;43.304;24.344;2022-09-01T12:01:57;99877.06;;;28.73;56.32
12781;BME280;6454;43.304;24.344;2022-09-01T12:04:31;99872.19;;;28.84;56.94
12781;BME280;6454;43.304;24.344;2022-09-01T12:07:02;99871.75;;;28.86;55.27
12781;BME280;6454;43.304;24.344;2022-09-01T12:09:38;99868.00;;;28.99;55.94
12781;BME280;6454;43.304;24.344;2022-09-01T12:12:28;99870.00;;;28.99;54.54
12781;BME280;6454;43.304;24.344;2022-09-01T12:14:56;99866.59;;;29.14;53.93
12781;BME280;6454;43.304;24.344;2022-09-01T12:17:23;99852.19;;;29.19;53.39
12781;BME280;6454;43.304;24.344;2022-09-01T12:19:51;99861.34;;;29.23;54.08
12781;BME280;6454;43.304;24.344;2022-09-01T12:22:19;99853.03;;;29.16;53.29
12781;BME280;6454;43.304;24.344;2022-09-01T12:24:48;99852.63;;;29.14;52.61
12781;BME280;6454;43.304;24.344;2022-09-01T12:27:16;99848.69;;;29.12;53.06
12781;BME280;6454;43.304;24.344;2022-09-01T12:29:43;99842.63;;;29.17;52.63
12781;BME280;6454;43.304;24.344;2022-09-01T12:32:11;99841.72;;;29.27;52.33
12781;BME280;6454;43.304;24.344;2022-09-01T12:34:42;99837.25;;;29.33;53.17
12781;BME280;6454;43.304;24.344;2022-09-01T12:37:19;99841.13;;;29.43;52.15
12781;BME280;6454;43.304;24.344;2022-09-01T12:39:48;99843.19;;;29.39;51.68
12781;BME280;6454;43.304;24.344;2022-09-01T12:42:24;99840.97;;;29.26;51.78
12781;BME280;6454;43.304;24.344;2022-09-01T12:44:53;99832.78;;;29.09;51.81
12781;BME280;6454;43.304;24.344;2022-09-01T12:47:44;99822.31;;;29.16;52.27
12781;BME280;6454;43.304;24.344;2022-09-01T12:50:40;99828.91;;;29.29;52.63
12781;BME280;6454;43.304;24.344;2022-09-01T12:53:19;99830.28;;;29.14;52.58
12781;BME280;6454;43.304;24.344;2022-09-01T12:55:59;99828.56;;;29.27;53.80
12781;BME280;6454;43.304;24.344;2022-09-01T12:58:28;99824.97;;;29.27;53.37
12781;BME280;6454;43.304;24.344;2022-09-01T13:00:59;99814.44;;;29.38;52.04
12781;BME280;6454;43.304;24.344;2022-09-01T13:03:28;99812.59;;;29.55;51.04
12781;BME280;6454;43.304;24.344;2022-09-01T13:05:56;99812.75;;;29.71;51.08
12781;BME280;6454;43.304;24.344;2022-09-01T13:08:27;99814.25;;;29.79;50.33
12781;BME280;6454;43.304;24.344;2022-09-01T13:10:56;99818.25;;;29.74;50.54
12781;BME280;6454;43.304;24.344;2022-09-01T13:13:25;99821.75;;;29.82;49.64
12781;BME280;6454;43.304;24.344;2022-09-01T13:15:55;99829.31;;;29.85;49.36
12781;BME280;6454;43.304;24.344;2022-09-01T13:18:25;99820.94;;;29.85;51.28
12781;BME280;6454;43.304;24.344;2022-09-01T13:20:53;99821.75;;;29.82;49.08